Meteo Giornale » Osservazioni meteo Italia » Lamezia Terme

ore: 02:20 - Osservazioni Meteo Lamezia Terme
Lat. 38° 54' N Lon. 16° 15' E Alt. 15 metri s.l.m.

sereno Europe/Rome

26 °C

Sereno

Temp. 24 Ore

20 °C

39 °C

Nord

3.7 Km/h

Dew point 24 °C

Umidità 88 %

Visibilità  10 Km

Il sole sorge alle ore 05:55

Il sole tramonta alle ore 20:06

Data e Ora Cielo e Fenomeni T °C DP °C Um. % Pres. hPa Vis. km Vento km/h
Oggi h: 02:20 sereno Sereno 26 24 88 1012 10 N 3.7
Oggi h: 01:50 sereno Sereno 27 24 83 1012 10 S/SO 7.4
Oggi h: 01:20 sereno Sereno 27 23 78 1013 10 O/SO 9.3
Oggi h: 00:50 sereno Sereno 27 23 78 1013 10 O/NO 7.4
Oggi h: 00:20 sereno Sereno 28 23 74 1013 10 N 5.5
Ieri h: 23:50 sereno Sereno 29 24 74 1013 10 N 3.7
Ieri h: 23:20 sereno Sereno 29 25 79 1013 10 O 9.3
Ieri h: 22:50 sereno Sereno 29 25 79 1014 10 O 13
Ieri h: 22:20 sereno Sereno 30 22 62 1013 10 E/SE 9.3
Ieri h: 21:50 sereno Sereno 29 22 66 1013 10 N 3.7
Ieri h: 21:20 sereno Sereno 29 23 70 1012 10 S/SE 7.4
Ieri h: 20:20 sereno Sereno 30 23 66 1011 10 S/SO 9.3
Ieri h: 19:50 sereno Sereno 31 22 58 1011 10 S/SO 9.3
Ieri h: 19:20 sereno Sereno 33 18 41 1010 10 N 5.5
Ieri h: 18:50 sereno Sereno 35 16 32 1010 10 N 3.7
Ieri h: 18:20 sereno Sereno 35 14 28 1010 10 N 3.7
Ieri h: 17:50 sereno Sereno 35 16 32 1010 10 SO 7.4
Ieri h: 17:20 sereno Sereno 34 18 38 1010 10 O/SO 9.3
Ieri h: 16:50 sereno Sereno 35 19 39 1010 10 SO 11.1
Ieri h: 15:50 sereno Sereno 37 12 22 1010 10 O 16.7
Ieri h: 15:20 sereno Sereno 38 13 22 1010 10 O 18.5
Ieri h: 14:50 sereno Sereno 38 14 24 1010 10 O/SO 14.8
Ieri h: 14:20 sereno Sereno 39 13 21 1010 10 N 5.5
Ieri h: 13:50 sereno Sereno 39 12 20 1011 10 NO 11.1
Ieri h: 13:20 sereno Sereno 38 12 21 1011 10 O/NO 9.3
Ieri h: 12:50 sereno Sereno 37 13 23 1011 10 NO 11.1
Ieri h: 12:20 sereno Sereno 36 15 28 1012 10 O 13
Ieri h: 11:50 sereno Sereno 36 13 25 1012 10 N 5.5
Ieri h: 11:20 sereno Sereno 34 12 26 1012 10 S/SO 9.3
Ieri h: 10:50 sereno Sereno 33 17 38 1013 10 SO 9.3
Ieri h: 10:20 sereno Sereno 33 19 43 1013 10 O 7.4
Ieri h: 09:50 sereno Sereno 30 21 58 1012 10 N 5.5
Ieri h: 09:20 sereno Sereno 30 22 62 1012 10 N 1.8
Ieri h: 08:50 sereno Sereno 29 23 70 1012 10 N 5.5
Ieri h: 08:20 sereno Sereno 29 23 70 1012 10 N 5.5
Ieri h: 07:50 sereno Sereno 27 21 69 1012 10 N 5.5
Ieri h: 07:20 sereno Sereno 24 20 78 1012 10 N 1.8
Ieri h: 06:50 sereno Sereno 21 19 88 1012 10 N 5.5
Ieri h: 05:50 sereno Sereno 20 18 88 1011 10 N 3.7
Ieri h: 05:20 sereno Sereno 21 18 82 1011 10 N 5.5
Ieri h: 04:50 sereno Sereno 22 19 83 1011 10 N 5.5
Ieri h: 04:20 sereno Sereno 23 19 78 1012 10 N 3.7
Ieri h: 03:50 sereno Sereno 23 19 78 1012 10 N 5.5
Ieri h: 03:20 sereno Sereno 24 20 78 1012 10 S 9.3
Ieri h: 02:50 sereno Sereno 20 17 82 1012 10 S 9.3